Time;durP1;ratioP1;P1;durP2;ratioP2;P2;SDS_P1;SDS_P2;PMS_P1;PMS_P2;Temp;Humidity;BMP_temperature;BMP_pressure;BME280_temperature;BME280_humidity;BME280_pressure;Samples;Min_cycle;Max_cycle;Signal;HPM_P1;HPM_P2
2023/12/07 00:00:32;;;;;;;123.83;49.03;;;;;;;-1.89;100.00;100969.17;4809723;59;1144958;-72
2023/12/07 00:05:39;;;;;;;127.07;47.73;;;;;;;-1.87;100.00;100971.30;4810325;59;1145062;-73
2023/12/07 00:10:45;;;;;;;140.53;50.03;;;;;;;-1.88;100.00;100979.52;4801506;59;1145067;-72
2023/12/07 00:15:50;;;;;;;133.80;49.50;;;;;;;-1.89;100.00;100976.52;4782786;58;1145034;-73
2023/12/07 00:20:56;;;;;;;136.20;48.73;;;;;;;-1.91;100.00;100980.87;4789699;59;1145095;-72
2023/12/07 00:26:01;;;;;;;136.93;51.47;;;;;;;-1.90;100.00;100981.72;4898973;58;1145237;-73
2023/12/07 00:31:08;;;;;;;148.00;53.43;;;;;;;-1.88;100.00;100986.44;4878683;58;1145012;-72
2023/12/07 00:36:13;;;;;;;133.83;49.13;;;;;;;-1.88;100.00;100992.48;4867398;58;1144902;-72
2023/12/07 00:41:19;;;;;;;146.47;50.63;;;;;;;-1.85;100.00;100989.84;4800736;59;1152814;-72
2023/12/07 00:46:24;;;;;;;145.57;54.23;;;;;;;-1.84;100.00;100988.09;4783165;59;1145083;-73
2023/12/07 00:51:30;;;;;;;134.33;53.17;;;;;;;-1.87;100.00;100986.86;4783072;59;1145069;-73
2023/12/07 00:56:37;;;;;;;141.37;49.80;;;;;;;-1.88;100.00;100990.33;4781984;59;1145289;-73
2023/12/07 01:01:42;;;;;;;149.93;54.90;;;;;;;-1.90;100.00;100996.83;4801140;58;1145101;-73
2023/12/07 01:06:48;;;;;;;146.13;52.90;;;;;;;-1.91;100.00;100995.12;4783138;57;1145085;-73
2023/12/07 01:11:54;;;;;;;143.80;49.13;;;;;;;-1.87;100.00;100998.08;4782676;59;1145049;-73
2023/12/07 01:16:59;;;;;;;148.57;52.33;;;;;;;-1.86;100.00;100993.31;4801350;59;1145133;-72
2023/12/07 01:22:05;;;;;;;139.33;50.17;;;;;;;-1.86;100.00;100995.91;4781657;59;1145113;-72
2023/12/07 01:27:11;;;;;;;146.87;51.00;;;;;;;-1.86;100.00;100993.75;4781632;59;1144873;-73
2023/12/07 01:32:18;;;;;;;137.92;50.65;;;;;;;-1.86;100.00;100994.61;4803861;59;1145528;-73
2023/12/07 01:37:23;;;;;;;129.53;50.63;;;;;;;-1.85;100.00;101001.94;4636623;58;1154700;-73
2023/12/07 01:42:29;;;;;;;140.07;53.67;;;;;;;-1.84;100.00;101004.95;4782606;58;1145007;-72
2023/12/07 01:47:36;;;;;;;147.85;52.90;;;;;;;-1.84;100.00;101006.24;4782737;59;1145259;-73
2023/12/07 01:52:45;;;;;;;154.20;51.57;;;;;;;-1.82;100.00;101000.12;4801480;59;1145210;-72
2023/12/07 01:57:51;;;;;;;134.63;50.63;;;;;;;-1.80;100.00;100994.91;4781002;59;1145007;-72
2023/12/07 02:02:57;;;;;;;144.40;51.60;;;;;;;-1.77;100.00;101005.23;4781746;59;1145006;-72
2023/12/07 02:08:03;;;;;;;150.87;52.47;;;;;;;-1.78;100.00;101016.48;4800902;59;1145387;-73
2023/12/07 02:13:09;;;;;;;148.63;49.03;;;;;;;-1.75;100.00;101012.53;4782770;59;1145282;-72
2023/12/07 02:18:29;;;;;;;126.87;46.27;;;;;;;-1.74;100.00;101009.06;4778502;59;1145353;-72
2023/12/07 02:23:36;;;;;;;144.06;51.76;;;;;;;-1.74;100.00;101012.95;4782011;59;1145230;-72
2023/12/07 02:28:42;;;;;;;140.87;52.33;;;;;;;-1.79;100.00;101011.73;4778123;59;1145208;-72
2023/12/07 02:33:48;;;;;;;141.93;50.77;;;;;;;-1.73;100.00;101015.11;4782724;59;1144963;-72
2023/12/07 02:39:01;;;;;;;153.03;52.93;;;;;;;-1.73;100.00;101014.66;4804410;58;1145234;-72
2023/12/07 02:44:07;;;;;;;146.13;51.63;;;;;;;-1.78;100.00;101010.00;4842287;58;1145091;-72
2023/12/07 02:49:12;;;;;;;136.93;48.73;;;;;;;-1.79;100.00;101012.17;4782673;59;1145037;-72
2023/12/07 02:54:18;;;;;;;137.73;50.03;;;;;;;-1.80;100.00;101003.98;4794574;57;1144963;-73
2023/12/07 02:59:24;;;;;;;136.25;52.00;;;;;;;-1.79;100.00;101006.55;4805808;58;1145154;-72
2023/12/07 03:04:29;;;;;;;149.40;53.50;;;;;;;-1.75;100.00;101006.05;4768389;59;1145189;-72
2023/12/07 03:09:35;;;;;;;143.75;52.65;;;;;;;-1.74;100.00;101012.95;4748259;59;1144996;-72
2023/12/07 03:14:40;;;;;;;142.68;49.23;;;;;;;-1.77;100.00;101013.00;4763669;59;1145057;-73
2023/12/07 03:19:46;;;;;;;139.23;47.20;;;;;;;-1.80;100.00;101021.69;4766963;58;1145033;-72
2023/12/07 03:24:53;;;;;;;130.43;47.63;;;;;;;-1.74;100.00;101032.40;4715807;59;1144928;-72
2023/12/07 03:29:59;;;;;;;126.27;48.43;;;;;;;-1.74;100.00;101032.40;4793447;59;1145299;-72
2023/12/07 03:35:07;;;;;;;132.87;46.20;;;;;;;-1.69;100.00;101037.51;4774913;58;1144966;-72
2023/12/07 03:40:12;;;;;;;125.47;47.20;;;;;;;-1.63;100.00;101047.74;4773513;59;1145034;-72
2023/12/07 03:45:19;;;;;;;134.30;47.07;;;;;;;-1.61;100.00;101051.16;4789861;57;1145227;-74
2023/12/07 03:50:25;;;;;;;138.80;49.63;;;;;;;-1.61;100.00;101057.20;4818029;58;1148027;-72
2023/12/07 03:55:30;;;;;;;133.97;48.05;;;;;;;-1.58;100.00;101065.38;4849656;58;1145237;-72
2023/12/07 04:00:36;;;;;;;133.27;47.83;;;;;;;-1.60;100.00;101070.59;4815742;58;1145378;-72
2023/12/07 04:05:42;;;;;;;138.77;49.93;;;;;;;-1.63;100.00;101066.75;4801851;59;1144999;-72
2023/12/07 04:10:48;;;;;;;137.17;51.07;;;;;;;-1.63;100.00;101073.23;4782959;59;1145063;-72
2023/12/07 04:15:53;;;;;;;116.43;46.23;;;;;;;-1.59;100.00;101069.70;4779893;59;1145178;-72
2023/12/07 04:20:59;;;;;;;127.63;46.37;;;;;;;-1.55;100.00;101077.00;4796660;59;1145366;-72
2023/12/07 04:26:05;;;;;;;136.20;46.93;;;;;;;-1.49;100.00;101082.05;4774491;60;1145271;-72
2023/12/07 04:31:11;;;;;;;116.80;42.20;;;;;;;-1.47;100.00;101078.55;4774860;57;1145214;-72
2023/12/07 04:36:16;;;;;;;138.50;48.43;;;;;;;-1.49;100.00;101071.67;4793304;60;1144951;-72
2023/12/07 04:41:22;;;;;;;140.33;50.27;;;;;;;-1.51;100.00;101082.07;4774027;58;1145089;-73
2023/12/07 04:46:28;;;;;;;132.67;48.35;;;;;;;-1.52;100.00;101079.06;4811688;58;1145002;-72
2023/12/07 04:51:34;;;;;;;129.10;45.90;;;;;;;-1.51;100.00;101073.44;4850708;57;1145124;-72
2023/12/07 04:56:41;;;;;;;109.03;41.30;;;;;;;-1.53;100.00;101073.46;4869328;58;1145253;-72
2023/12/07 05:01:48;;;;;;;116.93;41.73;;;;;;;-1.55;100.00;101073.11;4799935;58;1145095;-72
2023/12/07 05:06:54;;;;;;;109.60;42.57;;;;;;;-1.61;100.00;101075.80;4782992;59;1144867;-72
2023/12/07 05:11:59;;;;;;;117.10;41.97;;;;;;;-1.62;100.00;101081.88;4801055;59;1144893;-72
2023/12/07 05:17:05;;;;;;;110.77;44.60;;;;;;;-1.61;100.00;101080.98;4761254;59;1145170;-72
2023/12/07 05:22:11;;;;;;;124.27;52.17;;;;;;;-1.58;100.00;101097.36;4712408;59;1145107;-74
2023/12/07 05:27:17;;;;;;;120.73;45.47;;;;;;;-1.55;100.00;101094.71;4730704;59;1144896;-72
2023/12/07 05:32:22;;;;;;;125.30;47.57;;;;;;;-1.52;100.00;101105.44;4712932;59;1144958;-73
2023/12/07 05:37:28;;;;;;;120.37;44.23;;;;;;;-1.46;100.00;101111.83;4689188;60;1145348;-72
2023/12/07 05:42:33;;;;;;;111.88;43.25;;;;;;;-1.43;100.00;101120.86;4747139;59;1145252;-74
2023/12/07 05:47:39;;;;;;;140.83;57.80;;;;;;;-1.40;100.00;101118.20;4767974;60;1145026;-69
2023/12/07 05:52:44;;;;;;;170.07;71.23;;;;;;;-1.37;100.00;101125.91;4752929;60;1145287;-69
2023/12/07 05:57:51;;;;;;;117.93;48.17;;;;;;;-1.37;100.00;101129.80;4723607;60;1145148;-68
2023/12/07 06:02:57;;;;;;;112.93;46.47;;;;;;;-1.33;100.00;101137.95;4664822;61;1145453;-75
2023/12/07 06:08:04;;;;;;;218.43;77.97;;;;;;;-1.34;100.00;101139.27;4707186;60;1145334;-75
2023/12/07 06:13:10;;;;;;;353.87;132.50;;;;;;;-1.42;100.00;101140.73;4725346;59;1145193;-68
2023/12/07 06:18:16;;;;;;;283.38;123.78;;;;;;;-1.44;100.00;101144.64;4668365;60;1147248;-74
2023/12/07 06:23:22;;;;;;;212.65;85.12;;;;;;;-1.47;100.00;101139.95;4653596;58;1147531;-77
2023/12/07 06:28:27;;;;;;;266.37;97.17;;;;;;;-1.50;100.00;101153.82;4704144;59;1145299;-75
2023/12/07 06:33:33;;;;;;;171.15;63.73;;;;;;;-1.50;100.00;101160.75;4775655;59;1145172;-75
2023/12/07 06:38:39;;;;;;;146.85;57.00;;;;;;;-1.52;100.00;101162.06;4781744;59;1145184;-74
2023/12/07 06:43:45;;;;;;;156.50;63.03;;;;;;;-1.52;100.00;101162.06;4743398;58;1145180;-75
2023/12/07 06:48:52;;;;;;;169.63;68.77;;;;;;;-1.53;100.00;101157.76;4752084;59;1144841;-74
2023/12/07 06:53:57;;;;;;;168.53;65.17;;;;;;;-1.53;100.00;101162.95;4733563;59;1145278;-75
2023/12/07 06:59:03;;;;;;;170.23;69.40;;;;;;;-1.52;100.00;101161.21;4738314;59;1145041;-74
2023/12/07 07:04:08;;;;;;;169.53;69.83;;;;;;;-1.56;100.00;101161.73;4792736;58;1145154;-73
2023/12/07 07:09:15;;;;;;;137.33;57.73;;;;;;;-1.54;100.00;101171.64;4796845;60;1145177;-74
2023/12/07 07:14:21;;;;;;;147.07;58.47;;;;;;;-1.51;100.00;101172.00;4692439;60;1145054;-73
2023/12/07 07:19:26;;;;;;;120.60;45.93;;;;;;;-1.47;100.00;101182.30;4732269;59;1145402;-75
2023/12/07 07:24:32;;;;;;;118.00;46.23;;;;;;;-1.45;100.00;101188.77;4704526;59;1145071;-76
2023/12/07 07:29:38;;;;;;;113.37;45.27;;;;;;;-1.42;100.00;101201.25;4670520;60;1145209;-74
2023/12/07 07:34:43;;;;;;;118.40;43.20;;;;;;;-1.37;100.00;101193.36;4629823;59;1145129;-75
2023/12/07 07:39:49;;;;;;;129.17;51.37;;;;;;;-1.34;100.00;101202.39;4712886;60;1145141;-75
2023/12/07 07:44:54;;;;;;;160.27;62.97;;;;;;;-1.32;100.00;101203.67;4691412;59;1145257;-75
2023/12/07 07:50:05;;;;;;;142.23;57.87;;;;;;;-1.28;100.00;101202.73;4638228;59;1145080;-74
2023/12/07 07:55:07;;;;;;;125.27;48.60;;;;;;;-1.27;100.00;101201.86;4657958;61;1145247;-75
2023/12/07 08:00:14;;;;;;;119.97;47.57;;;;;;;-1.25;100.00;101200.95;4656990;60;1144890;-69
2023/12/07 08:05:20;;;;;;;134.37;55.13;;;;;;;-1.26;100.00;101196.64;4643139;60;1144965;-69
2023/12/07 08:10:25;;;;;;;127.30;48.87;;;;;;;-1.26;100.00;101196.64;4638699;60;1144939;-66
2023/12/07 08:15:32;;;;;;;130.43;50.27;;;;;;;-1.24;100.00;101205.70;4671326;60;1145187;-69
2023/12/07 08:20:38;;;;;;;151.15;57.10;;;;;;;-1.27;100.00;101210.50;4703189;62;1145294;-67
2023/12/07 08:25:43;;;;;;;122.30;48.63;;;;;;;-1.28;100.00;101208.78;4655893;61;1145284;-67
2023/12/07 08:30:49;;;;;;;149.47;64.47;;;;;;;-1.31;100.00;101205.38;4710519;60;1145440;-69
2023/12/07 08:35:56;;;;;;;131.50;57.27;;;;;;;-1.29;100.00;101208.81;4780386;60;1145146;-71
2023/12/07 08:41:03;;;;;;;155.47;70.83;;;;;;;-1.28;100.00;101215.27;4775729;59;1145194;-71
2023/12/07 08:46:09;;;;;;;140.35;58.87;;;;;;;-1.29;100.00;101220.48;4765250;60;1145336;-68
2023/12/07 08:51:14;;;;;;;159.53;60.60;;;;;;;-1.28;100.00;101220.46;4735997;60;1145351;-69
2023/12/07 08:56:20;;;;;;;158.33;61.47;;;;;;;-1.29;100.00;101227.83;4711085;59;1145136;-70
2023/12/07 09:01:26;;;;;;;142.47;55.33;;;;;;;-1.28;100.00;101223.50;4658338;60;1144947;-76
2023/12/07 09:06:32;;;;;;;141.28;58.38;;;;;;;-1.25;100.00;101235.12;4706114;59;1145199;-76
2023/12/07 09:11:37;;;;;;;124.30;48.25;;;;;;;-1.25;100.00;101233.83;4803682;59;1145044;-76
2023/12/07 09:16:47;;;;;;;179.43;63.03;;;;;;;-1.23;100.00;101223.84;4826249;58;1145035;-73
2023/12/07 09:21:52;;;;;;;170.10;62.37;;;;;;;-1.23;100.00;101223.84;4829853;58;1144941;-74
2023/12/07 09:26:58;;;;;;;123.60;49.47;;;;;;;-1.19;100.00;101229.80;4820822;59;1145145;-74
2023/12/07 09:32:03;;;;;;;125.17;45.40;;;;;;;-1.13;100.00;101236.20;4751353;59;1145133;-73
2023/12/07 09:37:10;;;;;;;124.00;49.87;;;;;;;-1.09;100.00;101234.83;4808493;58;1145018;-73
2023/12/07 09:42:16;;;;;;;122.07;50.93;;;;;;;-1.09;100.00;101232.23;4804171;59;1144865;-74
2023/12/07 09:47:22;;;;;;;111.87;45.87;;;;;;;-1.07;100.00;101225.24;4730999;59;1145136;-78
2023/12/07 09:52:27;;;;;;;146.33;64.13;;;;;;;-1.00;100.00;101232.48;4714518;59;1144991;-76
2023/12/07 09:57:34;;;;;;;116.28;45.38;;;;;;;-0.97;100.00;101222.05;4756457;60;1144907;-77
2023/12/07 10:02:41;;;;;;;117.47;47.20;;;;;;;-0.96;100.00;101219.02;4752769;60;1144995;-77
2023/12/07 10:07:50;;;;;;;145.73;55.53;;;;;;;-0.98;100.00;101217.74;4720621;60;1145053;-71
2023/12/07 10:13:01;;;;;;;147.90;57.23;;;;;;;-0.94;100.00;101215.95;4714605;60;1144926;-70
2023/12/07 10:18:07;;;;;;;140.97;52.17;;;;;;;-0.98;100.00;101202.61;4754455;60;1144894;-69
2023/12/07 10:23:13;;;;;;;127.05;48.92;;;;;;;-1.00;100.00;101209.56;4717860;60;1145001;-71
2023/12/07 10:28:19;;;;;;;167.07;62.47;;;;;;;-1.00;100.00;101218.20;4757197;60;1145412;-69
2023/12/07 10:33:26;;;;;;;177.43;60.63;;;;;;;-0.98;100.00;101210.39;4814561;59;1153084;-69
2023/12/07 10:38:32;;;;;;;129.45;53.00;;;;;;;-0.97;100.00;101209.07;4811382;60;1145199;-70
2023/12/07 10:43:42;;;;;;;122.03;50.23;;;;;;;-0.95;100.00;101203.41;4811603;60;1145019;-70
2023/12/07 10:48:49;;;;;;;481.90;224.20;;;;;;;-0.93;100.00;101209.44;4830488;60;1144789;-68
2023/12/07 10:53:58;;;;;;;150.20;62.27;;;;;;;-0.90;100.00;101214.98;4765547;59;1146847;-78
2023/12/07 10:59:04;;;;;;;133.83;53.13;;;;;;;-0.83;100.00;101206.20;4777557;60;1144951;-77
2023/12/07 11:04:12;;;;;;;144.80;64.93;;;;;;;-0.79;100.00;101208.72;4867209;59;1145083;-76
2023/12/07 11:09:26;;;;;;;130.60;52.80;;;;;;;-0.77;100.00;101206.95;4898783;59;1145145;-77
2023/12/07 11:14:33;;;;;;;125.73;47.23;;;;;;;-0.69;100.00;101202.87;4900053;59;1144605;-68
2023/12/07 11:19:43;;;;;;;135.80;50.55;;;;;;;-0.72;100.00;101205.53;4889335;59;1145105;-76
2023/12/07 11:25:00;;;;;;;247.00;100.93;;;;;;;-0.68;100.00;101197.24;4829958;60;1145158;-76
2023/12/07 11:30:06;;;;;;;162.18;69.05;;;;;;;-0.65;100.00;101194.59;4764342;60;1146691;-75
2023/12/07 11:35:14;;;;;;;138.15;58.68;;;;;;;-0.63;100.00;101191.52;4711526;59;1144703;-77
2023/12/07 11:40:19;;;;;;;251.90;106.20;;;;;;;-0.58;100.00;101192.26;4753575;60;1145225;-76
2023/12/07 11:45:53;;;;;;;132.53;55.33;;;;;;;-0.60;100.00;101190.98;4712020;60;1147186;-77
2023/12/07 11:51:00;;;;;;;218.10;83.43;;;;;;;-0.64;100.00;101187.21;4767262;59;1145185;-77
2023/12/07 11:56:09;;;;;;;136.37;54.23;;;;;;;-0.67;100.00;101179.48;4710839;59;1145124;-78
2023/12/07 12:01:15;;;;;;;156.83;58.93;;;;;;;-0.72;100.00;101179.56;4741729;59;1145245;-76
2023/12/07 12:06:21;;;;;;;145.13;55.80;;;;;;;-0.77;100.00;101175.78;4699087;59;1145177;-76
2023/12/07 12:11:27;;;;;;;147.93;57.13;;;;;;;-0.77;100.00;101179.68;4710560;59;1250573;-77
2023/12/07 12:16:33;;;;;;;151.45;58.48;;;;;;;-0.75;100.00;101173.13;4724943;59;1145112;-76
2023/12/07 12:21:43;;;;;;;145.40;55.35;;;;;;;-0.70;100.00;101172.59;4742896;59;1145313;-78
2023/12/07 12:26:49;;;;;;;136.57;52.80;;;;;;;-0.68;100.00;101176.47;4724561;58;1145130;-77
2023/12/07 12:31:54;;;;;;;140.17;56.83;;;;;;;-0.68;100.00;101190.31;4760052;58;1145393;-77
2023/12/07 12:37:00;;;;;;;141.67;55.87;;;;;;;-0.70;100.00;101185.59;4828764;59;1144945;-77
2023/12/07 12:42:06;;;;;;;170.13;67.37;;;;;;;-0.71;100.00;101179.53;4784208;59;1145117;-75
2023/12/07 12:47:12;;;;;;;167.13;70.27;;;;;;;-0.67;100.00;101175.14;4781255;58;1144918;-75
2023/12/07 12:52:18;;;;;;;135.43;54.70;;;;;;;-0.62;100.00;101186.73;4776733;58;1145086;-80
2023/12/07 12:57:24;;;;;;;132.97;54.97;;;;;;;-0.58;100.00;101188.36;4813726;58;1145180;-75
2023/12/07 13:02:30;;;;;;;136.03;55.97;;;;;;;-0.54;100.00;101197.36;4860060;58;1145201;-77
2023/12/07 13:07:35;;;;;;;146.67;58.50;;;;;;;-0.55;100.00;101193.50;4878970;57;1151110;-80
2023/12/07 13:12:41;;;;;;;147.72;59.15;;;;;;;-0.53;100.00;101196.92;4898056;58;1145057;-77
2023/12/07 13:17:46;;;;;;;148.07;56.83;;;;;;;-0.52;100.00;101196.04;4861069;58;1145178;-76
2023/12/07 13:22:52;;;;;;;158.27;58.97;;;;;;;-0.53;100.00;101200.82;4781897;59;1145168;-76
2023/12/07 13:27:58;;;;;;;153.78;58.23;;;;;;;-0.55;100.00;101199.99;4798304;59;1145138;-72
2023/12/07 13:33:09;;;;;;;141.17;57.37;;;;;;;-0.57;100.00;101205.22;4764518;59;1144954;-75
2023/12/07 13:38:23;;;;;;;139.67;57.90;;;;;;;-0.59;100.00;101201.80;4709997;61;1144950;-79
2023/12/07 13:43:31;;;;;;;159.50;59.33;;;;;;;-0.58;100.00;101206.11;4710315;60;1145106;-73
2023/12/07 13:48:36;;;;;;;179.85;66.77;;;;;;;-0.59;100.00;101205.69;4712389;59;1145029;-80
2023/12/07 13:53:42;;;;;;;149.57;59.83;;;;;;;-0.58;100.00;101215.64;4747308;59;1145131;-79
2023/12/07 13:58:47;;;;;;;186.67;74.92;;;;;;;-0.57;100.00;101214.31;4730648;58;1145114;-77
2023/12/07 14:03:53;;;;;;;176.13;71.83;;;;;;;-0.54;100.00;101217.30;4711440;60;1144973;-73
2023/12/07 14:08:59;;;;;;;158.07;65.93;;;;;;;-0.54;100.00;101222.05;4709834;61;1144957;-69
2023/12/07 14:14:04;;;;;;;163.87;65.07;;;;;;;-0.52;100.00;101218.98;4726406;60;1144971;-78
2023/12/07 14:19:10;;;;;;;148.17;58.15;;;;;;;-0.51;100.00;101224.59;4706478;60;1144992;-79
2023/12/07 14:24:16;;;;;;;150.17;61.70;;;;;;;-0.51;100.00;101228.92;4708404;60;1145231;-78
2023/12/07 14:29:24;;;;;;;178.70;67.83;;;;;;;-0.52;100.00;101228.52;4736716;60;1144877;-81
2023/12/07 14:34:29;;;;;;;174.50;66.57;;;;;;;-0.50;100.00;101230.20;4801798;58;1144858;-80
2023/12/07 14:39:40;;;;;;;171.87;68.40;;;;;;;-0.48;100.00;101232.77;4758401;59;1144960;-75
2023/12/07 14:44:46;;;;;;;178.53;68.40;;;;;;;-0.51;100.00;101234.13;4752085;59;1158516;-79
2023/12/07 14:49:52;;;;;;;183.03;70.97;;;;;;;-0.53;100.00;101236.75;4769493;59;1249707;-79
2023/12/07 14:54:57;;;;;;;171.20;64.10;;;;;;;-0.50;100.00;101240.59;4752849;58;1145241;-80
2023/12/07 15:00:04;;;;;;;171.47;72.10;;;;;;;-0.55;100.00;101234.63;4752877;58;1144901;-72
2023/12/07 15:05:10;;;;;;;163.90;64.20;;;;;;;-0.52;100.00;101245.40;4770678;59;1145232;-78
2023/12/07 15:10:15;;;;;;;162.00;64.63;;;;;;;-0.48;100.00;101240.56;4751476;58;1145132;-80
2023/12/07 15:15:21;;;;;;;188.23;73.40;;;;;;;-0.49;100.00;101227.16;4679778;60;1145138;-76
2023/12/07 15:20:26;;;;;;;182.13;68.37;;;;;;;-0.49;100.00;101233.66;4730153;59;1145051;-78
2023/12/07 15:25:32;;;;;;;199.73;80.23;;;;;;;-0.47;100.00;101233.18;4722544;58;1145171;-81
2023/12/07 15:30:38;;;;;;;179.70;70.50;;;;;;;-0.45;100.00;101236.58;4829698;58;1145085;-83
2023/12/07 15:35:44;;;;;;;160.50;65.73;;;;;;;-0.45;100.00;101241.33;4844844;58;1145024;-80
2023/12/07 15:40:51;;;;;;;161.77;63.10;;;;;;;-0.48;100.00;101242.72;4719228;59;1184652;-79
2023/12/07 15:45:57;;;;;;;173.55;66.00;;;;;;;-0.52;100.00;101239.77;4660745;58;1240920;-78
2023/12/07 15:51:02;;;;;;;170.60;69.37;;;;;;;-0.53;100.00;101232.86;4679818;60;1249055;-76
2023/12/07 15:56:09;;;;;;;168.57;66.83;;;;;;;-0.53;100.00;101238.49;4663242;60;1196057;-80
2023/12/07 16:01:14;;;;;;;172.10;65.27;;;;;;;-0.52;100.00;101241.50;4705189;60;1225807;-74
2023/12/07 16:06:20;;;;;;;160.17;61.90;;;;;;;-0.55;100.00;101250.66;4740357;60;1145087;-80
2023/12/07 16:11:26;;;;;;;186.67;73.47;;;;;;;-0.59;100.00;101244.66;4724275;60;1145056;-73
2023/12/07 16:16:33;;;;;;;172.95;67.12;;;;;;;-0.60;100.00;101238.19;4703632;60;1257209;-81
2023/12/07 16:21:38;;;;;;;174.57;68.00;;;;;;;-0.59;100.00;101239.91;4655051;60;1257443;-78
2023/12/07 16:26:44;;;;;;;156.80;64.87;;;;;;;-0.62;100.00;101246.48;4657867;61;1261970;-84
2023/12/07 16:31:50;;;;;;;155.40;60.07;;;;;;;-0.62;100.00;101246.05;4691132;60;1145012;-82
2023/12/07 16:36:56;;;;;;;169.23;64.30;;;;;;;-0.62;100.00;101247.34;4687866;58;1245865;-79
2023/12/07 16:42:02;;;;;;;192.27;76.53;;;;;;;-0.63;100.00;101252.56;4725641;58;1241060;-77
2023/12/07 16:47:08;;;;;;;227.43;89.00;;;;;;;-0.59;100.00;101258.95;4641912;60;1245697;-80
2023/12/07 16:52:14;;;;;;;205.33;89.40;;;;;;;-0.57;100.00;101267.57;4647585;59;1246371;-85
2023/12/07 16:57:20;;;;;;;268.87;103.20;;;;;;;-0.65;100.00;101264.72;4675323;59;1145225;-84
2023/12/07 17:02:26;;;;;;;243.07;97.40;;;;;;;-0.69;100.00;101262.62;4668453;58;1246435;-77
2023/12/07 17:07:32;;;;;;;184.27;75.43;;;;;;;-0.70;100.00;101259.61;4652918;59;1145120;-78
2023/12/07 17:12:38;;;;;;;212.43;82.37;;;;;;;-0.70;100.00;101263.50;4653960;58;1145110;-75
2023/12/07 17:17:44;;;;;;;207.00;83.40;;;;;;;-0.68;100.00;101251.79;4718014;59;1189553;-81
2023/12/07 17:22:50;;;;;;;262.23;101.33;;;;;;;-0.63;100.00;101256.46;4649111;60;1145177;-78
2023/12/07 17:27:57;;;;;;;182.23;78.83;;;;;;;-0.63;100.00;101249.52;4708763;58;1147162;-82
2023/12/07 17:33:03;;;;;;;193.60;77.97;;;;;;;-0.61;100.00;101249.02;4773848;58;1215034;-74
2023/12/07 17:38:09;;;;;;;215.73;83.83;;;;;;;-0.64;100.00;101249.11;4725045;59;1144959;-81
2023/12/07 17:43:14;;;;;;;227.23;89.17;;;;;;;-0.66;100.00;101253.92;4725495;58;1144987;-79
2023/12/07 17:48:20;;;;;;;247.02;93.10;;;;;;;-0.69;100.00;101256.12;4704621;59;1145211;-75
2023/12/07 17:53:27;;;;;;;234.83;96.30;;;;;;;-0.65;100.00;101263.42;4693355;58;1145248;-81
2023/12/07 17:58:33;;;;;;;277.57;111.37;;;;;;;-0.64;100.00;101274.23;4681360;60;1244262;-80
2023/12/07 18:03:39;;;;;;;200.80;81.95;;;;;;;-0.68;100.00;101266.94;4645569;60;1149232;-76
2023/12/07 18:08:46;;;;;;;222.13;87.83;;;;;;;-0.71;100.00;101253.55;4705667;60;1145060;-80
2023/12/07 18:13:52;;;;;;;180.85;70.10;;;;;;;-0.71;100.00;101244.47;4645618;60;1144903;-78
2023/12/07 18:18:58;;;;;;;176.40;69.13;;;;;;;-0.75;100.00;101251.04;4791307;58;1145025;-74
2023/12/07 18:24:03;;;;;;;187.97;74.40;;;;;;;-0.78;100.00;101245.94;4813251;58;1145066;-76
2023/12/07 18:29:09;;;;;;;188.43;74.27;;;;;;;-0.76;100.00;101251.48;4723881;58;1145266;-74
2023/12/07 18:34:15;;;;;;;200.17;81.33;;;;;;;-0.74;100.00;101248.86;4736541;58;1145240;-74
2023/12/07 18:39:20;;;;;;;179.20;71.47;;;;;;;-0.77;100.00;101242.45;4765589;59;1145239;-79
2023/12/07 18:44:26;;;;;;;181.67;77.50;;;;;;;-0.79;100.00;101230.79;4756641;60;1145179;-74
2023/12/07 18:49:33;;;;;;;190.07;76.83;;;;;;;-0.77;100.00;101231.62;4809055;60;1145136;-74
2023/12/07 18:54:41;;;;;;;196.97;76.07;;;;;;;-0.77;100.00;101233.36;4808043;60;1145362;-71
2023/12/07 18:59:47;;;;;;;189.50;79.60;;;;;;;-0.77;100.00;101233.36;4826398;59;1144990;-74
2023/12/07 19:04:52;;;;;;;191.53;75.23;;;;;;;-0.79;100.00;101242.48;4809284;59;1145206;-74
2023/12/07 19:09:58;;;;;;;186.10;75.03;;;;;;;-0.75;100.00;101260.98;4811134;59;1145213;-74
2023/12/07 19:15:04;;;;;;;424.47;137.00;;;;;;;-0.69;100.00;101266.96;4826963;60;1145034;-76
2023/12/07 19:20:10;;;;;;;283.93;98.83;;;;;;;-0.64;100.00;101267.73;4806761;60;1147155;-77
2023/12/07 19:25:16;;;;;;;291.67;102.03;;;;;;;-0.55;100.00;101268.84;4820801;58;1144952;-74
2023/12/07 19:30:21;;;;;;;264.40;98.72;;;;;;;-0.48;100.00;101274.34;4835831;58;1147297;-80
2023/12/07 19:35:27;;;;;;;279.03;98.17;;;;;;;-0.42;100.00;101275.50;4785681;59;1145219;-78
2023/12/07 19:40:32;;;;;;;255.18;91.53;;;;;;;-0.38;100.00;101284.95;4737103;60;1145152;-78
2023/12/07 19:45:41;;;;;;;178.95;70.40;;;;;;;-0.37;100.00;101276.27;4736777;61;1145431;-78
2023/12/07 19:50:46;;;;;;;194.53;76.73;;;;;;;-0.43;100.00;101273.78;4813404;60;1145333;-77
2023/12/07 19:55:52;;;;;;;190.23;78.47;;;;;;;-0.50;100.00;101276.11;4772989;59;1144991;-81
2023/12/07 20:00:58;;;;;;;182.10;72.93;;;;;;;-0.51;100.00;101268.76;4845086;58;1145006;-77
2023/12/07 20:06:04;;;;;;;197.98;82.75;;;;;;;-0.54;100.00;101267.52;4802047;59;1145444;-74
2023/12/07 20:11:22;;;;;;;190.33;76.13;;;;;;;-0.55;100.00;101261.05;4817020;58;1144935;-80
2023/12/07 20:16:29;;;;;;;198.30;77.93;;;;;;;-0.55;100.00;101261.05;4812784;58;1144917;-78
2023/12/07 20:21:34;;;;;;;260.40;96.17;;;;;;;-0.56;100.00;101258.89;4767217;59;1145396;-77
2023/12/07 20:26:40;;;;;;;245.00;92.60;;;;;;;-0.54;100.00;101263.61;4807571;60;1145118;-77
2023/12/07 20:31:46;;;;;;;263.10;99.17;;;;;;;-0.52;100.00;101257.95;4777086;59;1145340;-78
2023/12/07 20:36:52;;;;;;;249.70;106.52;;;;;;;-0.47;100.00;101252.67;4796669;60;1145159;-80
2023/12/07 20:41:58;;;;;;;180.57;72.70;;;;;;;-0.43;100.00;101251.25;4829957;60;1146976;-76
2023/12/07 20:47:04;;;;;;;197.30;76.27;;;;;;;-0.44;100.00;101243.48;4752977;60;1145323;-77
2023/12/07 20:52:11;;;;;;;188.27;81.83;;;;;;;-0.47;100.00;101244.44;4767512;59;1145110;-77
2023/12/07 20:57:18;;;;;;;182.20;75.00;;;;;;;-0.48;100.00;101243.16;4820377;59;1145347;-73
2023/12/07 21:02:24;;;;;;;257.10;94.97;;;;;;;-0.52;100.00;101224.17;4802445;59;1145127;-78
2023/12/07 21:07:30;;;;;;;232.83;89.30;;;;;;;-0.58;100.00;101214.34;4810842;59;1145208;-73
2023/12/07 21:12:35;;;;;;;223.20;84.40;;;;;;;-0.61;100.00;101220.45;4788944;59;1145008;-73
2023/12/07 21:17:41;;;;;;;219.80;83.20;;;;;;;-0.61;100.00;101229.54;4829292;59;1145131;-74
2023/12/07 21:22:47;;;;;;;207.45;79.05;;;;;;;-0.61;100.00;101223.52;4810634;58;1145191;-75
2023/12/07 21:27:53;;;;;;;217.80;81.10;;;;;;;-0.66;100.00;101201.97;4821830;58;1145111;-74
2023/12/07 21:32:59;;;;;;;201.05;78.07;;;;;;;-0.71;100.00;101198.16;4867874;59;1145156;-74
2023/12/07 21:38:04;;;;;;;223.60;84.27;;;;;;;-0.70;100.00;101190.78;4839857;59;1145112;-73
2023/12/07 21:43:10;;;;;;;248.27;88.70;;;;;;;-0.72;100.00;101188.21;4810669;58;1145027;-77
2023/12/07 21:48:16;;;;;;;203.07;83.27;;;;;;;-0.69;100.00;101188.59;4830290;59;1145213;-76
2023/12/07 21:53:22;;;;;;;217.90;83.67;;;;;;;-0.72;100.00;101180.86;4763572;59;1144846;-76
2023/12/07 21:58:27;;;;;;;200.00;78.67;;;;;;;-0.72;100.00;101179.12;4732367;59;1145022;-76
2023/12/07 22:03:33;;;;;;;202.33;79.73;;;;;;;-0.72;100.00;101181.72;4750353;59;1144785;-76
2023/12/07 22:08:39;;;;;;;202.20;78.85;;;;;;;-0.65;100.00;101180.30;4720150;60;1144872;-74